Kattegat — 5BKX3 — position and weather

sailwx.info

Track history (hours):
 
Tides and Currents Weather Stations Pressure Air Temp Water Temp Dewpoint Dewpoint Depression Visibility Wind Speed Wind Dir Waves Ship Positions

Kattegat

Last reported at 2017-Oct-18 02:34 UTC. Time now 2017-Oct-18 03:41 UTC.
Position N 36°05' W 005°08'.

Length 136 m; draft 5.2 m.

Type: Passenger vessel. MMSI: 209405000.

Date/timePositionNaut miles runAvg speedWind from/ knotsBaromVisibWave heightAir tempDewpointWater temp
2017-Oct-18 02:34N 36°05' W 005°08'116.4
2017-Oct-18 02:30N 36°04' W 005°09'917.1
2017-Oct-18 02:00N 36°00' W 005°18'918.5
2017-Oct-18 01:30N 35°56' W 005°29'4 1.0
2017-Oct-17 21:59N 35°53' W 005°31'715.2
2017-Oct-17 21:31N 35°59' W 005°27'815.1
2017-Oct-17 21:01N 36°02' W 005°18'8 0.4
2017-Oct-17 02:23N 36°04' W 005°08'717.6
2017-Oct-17 02:00N 36°02' W 005°16'917.9
2017-Oct-17 01:30N 35°58' W 005°25'7 1.8
2017-Oct-16 21:50N 35°53' W 005°31'515.5
2017-Oct-16 21:30N 35°58' W 005°29'815.4
2017-Oct-16 21:00N 36°01' W 005°20'11 0.6
2017-Oct-16 02:20N 36°05' W 005°08'617.3
2017-Oct-16 02:00N 36°02' W 005°14'917.3
2017-Oct-16 01:30N 35°58' W 005°24'8 3.7
2017-Oct-15 23:18N 35°53' W 005°31'1 3.9
2017-Oct-15 23:00N 35°54' W 005°31'1 0.4
2017-Oct-15 21:45N 35°54' W 005°31'311.3
2017-Oct-15 21:30N 35°57' W 005°30'816.5
2017-Oct-15 21:00N 36°01' W 005°21'815.7
2017-Oct-15 20:30N 36°05' W 005°12'2 0.1
2017-Oct-15 02:23N 36°04' W 005°10'717.8
2017-Oct-15 02:00N 36°01' W 005°17'917.5
2017-Oct-15 01:30N 35°57' W 005°27'5 1.5
2017-Oct-14 21:49N 35°53' W 005°31'412.4
2017-Oct-14 21:30N 35°57' W 005°30'715.0
2017-Oct-14 21:00N 36°00' W 005°22'815.1
2017-Oct-14 20:30N 36°04' W 005°14'7 0.4
2017-Oct-14 02:34N 36°06' W 005°06'117.9
2017-Oct-14 02:29N 36°05' W 005°08'818.0
2017-Oct-14 02:00N 36°01' W 005°17'917.3
2017-Oct-14 01:30N 35°57' W 005°26'6 1.6
2017-Oct-13 21:54N 35°53' W 005°31'514.0
2017-Oct-13 21:30N 35°58' W 005°29'815.4
2017-Oct-13 21:00N 36°01' W 005°20'815.1
2017-Oct-13 20:30N 36°05' W 005°12'5 0.2
2017-Oct-13 01:59N 36°05' W 005°06'816.7
2017-Oct-13 01:30N 36°02' W 005°15'816.3
2017-Oct-13 01:00N 35°58' W 005°24'7 2.5
2017-Oct-12 21:58N 35°53' W 005°31'614.0
2017-Oct-12 21:31N 35°59' W 005°28'815.6
2017-Oct-12 21:00N 36°02' W 005°19'815.7
2017-Oct-12 20:29N 36°06' W 005°10'3 0.1
2017-Oct-12 01:57N 36°04' W 005°07'716.5
2017-Oct-12 01:30N 36°02' W 005°15'816.3
2017-Oct-12 01:00N 35°58' W 005°24'7 2.5
2017-Oct-11 22:01N 35°53' W 005°31'0 7.8
2017-Oct-11 22:00N 35°53' W 005°31'612.9
2017-Oct-11 21:30N 35°59' W 005°28'816.3
2017-Oct-11 21:00N 36°02' W 005°19'815.3
2017-Oct-11 20:30N 36°06' W 005°10'21 1.0
2017-Oct-10 22:40N 35°53' W 005°31'314.1
2017-Oct-10 22:27N 35°56' W 005°30'614.4
2017-Oct-10 22:01N 36°00' W 005°24'816.3
2017-Oct-10 21:31N 36°04' W 005°15'  
Track history (hours):
 
Tides and Currents Weather Stations Pressure Air Temp Water Temp Dewpoint Dewpoint Depression Visibility Wind Speed Wind Dir Waves Ship Positions

Kattegat

Last reported at 2017-Oct-18 02:34 UTC. Time now 2017-Oct-18 03:41 UTC.
Position N 36°05' W 005°08'.

Length 136 m; draft 5.2 m.

Type: Passenger vessel. MMSI: 209405000.

Date/timePositionNaut miles runAvg speedWind from/ knotsBaromVisibWave heightAir tempDewpointWater temp
2017-Oct-18 02:34N 36°05' W 005°08'116.4
2017-Oct-18 02:30N 36°04' W 005°09'917.1
2017-Oct-18 02:00N 36°00' W 005°18'918.5
2017-Oct-18 01:30N 35°56' W 005°29'4 1.0
2017-Oct-17 21:59N 35°53' W 005°31'715.2
2017-Oct-17 21:31N 35°59' W 005°27'815.1
2017-Oct-17 21:01N 36°02' W 005°18'8 0.4
2017-Oct-17 02:23N 36°04' W 005°08'717.6
2017-Oct-17 02:00N 36°02' W 005°16'917.9
2017-Oct-17 01:30N 35°58' W 005°25'7 1.8
2017-Oct-16 21:50N 35°53' W 005°31'515.5
2017-Oct-16 21:30N 35°58' W 005°29'815.4
2017-Oct-16 21:00N 36°01' W 005°20'11 0.6
2017-Oct-16 02:20N 36°05' W 005°08'617.3
2017-Oct-16 02:00N 36°02' W 005°14'917.3
2017-Oct-16 01:30N 35°58' W 005°24'8 3.7
2017-Oct-15 23:18N 35°53' W 005°31'1 3.9
2017-Oct-15 23:00N 35°54' W 005°31'1 0.4
2017-Oct-15 21:45N 35°54' W 005°31'311.3
2017-Oct-15 21:30N 35°57' W 005°30'816.5
2017-Oct-15 21:00N 36°01' W 005°21'815.7
2017-Oct-15 20:30N 36°05' W 005°12'2 0.1
2017-Oct-15 02:23N 36°04' W 005°10'717.8
2017-Oct-15 02:00N 36°01' W 005°17'917.5
2017-Oct-15 01:30N 35°57' W 005°27'5 1.5
2017-Oct-14 21:49N 35°53' W 005°31'412.4
2017-Oct-14 21:30N 35°57' W 005°30'715.0
2017-Oct-14 21:00N 36°00' W 005°22'815.1
2017-Oct-14 20:30N 36°04' W 005°14'7 0.4
2017-Oct-14 02:34N 36°06' W 005°06'117.9
2017-Oct-14 02:29N 36°05' W 005°08'818.0
2017-Oct-14 02:00N 36°01' W 005°17'917.3
2017-Oct-14 01:30N 35°57' W 005°26'6 1.6
2017-Oct-13 21:54N 35°53' W 005°31'514.0
2017-Oct-13 21:30N 35°58' W 005°29'815.4
2017-Oct-13 21:00N 36°01' W 005°20'815.1
2017-Oct-13 20:30N 36°05' W 005°12'5 0.2
2017-Oct-13 01:59N 36°05' W 005°06'816.7
2017-Oct-13 01:30N 36°02' W 005°15'816.3
2017-Oct-13 01:00N 35°58' W 005°24'7 2.5
2017-Oct-12 21:58N 35°53' W 005°31'614.0
2017-Oct-12 21:31N 35°59' W 005°28'815.6
2017-Oct-12 21:00N 36°02' W 005°19'815.7
2017-Oct-12 20:29N 36°06' W 005°10'3 0.1
2017-Oct-12 01:57N 36°04' W 005°07'716.5
2017-Oct-12 01:30N 36°02' W 005°15'816.3
2017-Oct-12 01:00N 35°58' W 005°24'7 2.5
2017-Oct-11 22:01N 35°53' W 005°31'0 7.8
2017-Oct-11 22:00N 35°53' W 005°31'612.9
2017-Oct-11 21:30N 35°59' W 005°28'816.3
2017-Oct-11 21:00N 36°02' W 005°19'815.3
2017-Oct-11 20:30N 36°06' W 005°10'21 1.0
2017-Oct-10 22:40N 35°53' W 005°31'314.1
2017-Oct-10 22:27N 35°56' W 005°30'614.4
2017-Oct-10 22:01N 36°00' W 005°24'816.3
2017-Oct-10 21:31N 36°04' W 005°15'  

Dump ship's entire track history